BOC1F EGNX-KMIA
Flight info
| Callsign | BOC1F |
|---|---|
| Flight time | N/A |
| Altitude | 24000 |
| Route | TNT Q4 WAL/N0483F320 L10 PENIL M144 BAGSO DCT RINUS DCT MALOT/M083F330 DCT 53N020W 52N030W 51N040W 50N050W DCT ELSIR/N0472F340 N398B TUSKY DCT FOXBO DCT RIFLE DCT HEADI Q97 KALDA Q101 BGBRD/N0476F360 Q101 SKARP Y313 HOAGG BNFSH2 |
| Aircraft | B77L/H-SDE1E2E3FGHIJ2J3J4J5M1RWXY/LB1D1 |
Departure
| Time | 2026-04-30 21:36 |
|---|---|
| Airport | East Midlands Airport (EGNX) |
Arrival
| Time | N/A |
|---|---|
| Airport | Miami International Airport (KMIA) |
| Time | Latitude | Longitude | Altitude | Speed | Heading |
|---|---|---|---|---|---|
| 2026-04-30 21:16 | 52.82748 | -1.34867 | 318 ft | 0 kts | 178° |
| 2026-04-30 21:29 | 52.82752 | -1.34867 | 319 ft | 3 kts | 178° |
| 2026-04-30 21:29 | 52.82825 | -1.34849 | 318 ft | 4 kts | 252° |
| 2026-04-30 21:30 | 52.82827 | -1.34839 | 316 ft | 0 kts | 268° |
| 2026-04-30 21:32 | 52.82826 | -1.34870 | 317 ft | 8 kts | 268° |
| 2026-04-30 21:32 | 52.82824 | -1.34976 | 320 ft | 9 kts | 268° |
| 2026-04-30 21:32 | 52.82821 | -1.35083 | 320 ft | 9 kts | 268° |
| 2026-04-30 21:32 | 52.82820 | -1.35192 | 320 ft | 10 kts | 271° |
| 2026-04-30 21:33 | 52.82861 | -1.35264 | 320 ft | 10 kts | 3° |
| 2026-04-30 21:33 | 52.82895 | -1.35054 | 320 ft | 10 kts | 88° |
| 2026-04-30 21:33 | 52.82915 | -1.34937 | 320 ft | 9 kts | 44° |
| 2026-04-30 21:34 | 52.82933 | -1.34928 | 320 ft | 0 kts | 356° |
| 2026-04-30 21:34 | 52.82968 | -1.34932 | 320 ft | 5 kts | 356° |
| 2026-04-30 21:34 | 52.83016 | -1.34937 | 320 ft | 8 kts | 357° |
| 2026-04-30 21:35 | 52.83060 | -1.34878 | 319 ft | 9 kts | 75° |
| 2026-04-30 21:35 | 52.83062 | -1.34806 | 317 ft | 10 kts | 87° |
| 2026-04-30 21:35 | 52.83075 | -1.34242 | 317 ft | 102 kts | 89° |
| 2026-04-30 21:35 | 52.83104 | -1.32520 | 472 ft | 183 kts | 89° |
| 2026-04-30 21:36 | 52.83156 | -1.30456 | 1812 ft | 171 kts | 92° |
| 2026-04-30 21:36 | 52.83128 | -1.28471 | 2693 ft | 184 kts | 103° |
| 2026-04-30 21:37 | 52.84908 | -1.21807 | 4050 ft | 280 kts | 19° |
| 2026-04-30 21:37 | 52.86879 | -1.21657 | 5107 ft | 285 kts | 347° |
| 2026-04-30 21:37 | 52.88696 | -1.22970 | 6151 ft | 287 kts | 322° |
| 2026-04-30 21:37 | 52.90021 | -1.25349 | 7038 ft | 287 kts | 301° |
| 2026-04-30 21:38 | 52.91092 | -1.28172 | 7799 ft | 295 kts | 299° |
| 2026-04-30 21:38 | 52.92170 | -1.31120 | 8801 ft | 299 kts | 298° |
| 2026-04-30 21:38 | 52.93262 | -1.34121 | 9797 ft | 302 kts | 298° |
| 2026-04-30 21:38 | 52.94348 | -1.37097 | 10622 ft | 309 kts | 298° |
| 2026-04-30 21:39 | 52.95518 | -1.40291 | 11042 ft | 334 kts | 298° |
| 2026-04-30 21:39 | 52.96778 | -1.43717 | 11265 ft | 363 kts | 299° |
| 2026-04-30 21:39 | 52.98128 | -1.47368 | 11689 ft | 383 kts | 299° |
| 2026-04-30 21:39 | 52.99527 | -1.51134 | 12466 ft | 393 kts | 299° |
| 2026-04-30 21:40 | 53.00964 | -1.54999 | 13424 ft | 397 kts | 299° |
| 2026-04-30 21:40 | 53.02413 | -1.58905 | 14388 ft | 401 kts | 298° |
| 2026-04-30 21:40 | 53.03882 | -1.62886 | 15186 ft | 407 kts | 298° |
| 2026-04-30 21:40 | 53.05199 | -1.67056 | 15972 ft | 411 kts | 291° |
| 2026-04-30 21:41 | 53.06236 | -1.71505 | 16786 ft | 413 kts | 284° |
| 2026-04-30 21:41 | 53.07023 | -1.76110 | 17589 ft | 417 kts | 282° |
| 2026-04-30 21:41 | 53.07790 | -1.80794 | 18384 ft | 423 kts | 282° |
| 2026-04-30 21:41 | 53.08567 | -1.85535 | 19082 ft | 428 kts | 282° |
| 2026-04-30 21:42 | 53.09361 | -1.90334 | 19805 ft | 432 kts | 282° |
| 2026-04-30 21:42 | 53.10162 | -1.95126 | 20554 ft | 435 kts | 282° |
| 2026-04-30 21:42 | 53.10977 | -1.99991 | 21247 ft | 439 kts | 282° |
| 2026-04-30 21:42 | 53.11776 | -2.04756 | 21927 ft | 443 kts | 281° |
| 2026-04-30 21:43 | 53.12610 | -2.09733 | 22560 ft | 449 kts | 281° |
| 2026-04-30 21:43 | 53.13443 | -2.14735 | 23212 ft | 454 kts | 281° |
| 2026-04-30 21:43 | 53.14379 | -2.19791 | 23881 ft | 461 kts | 285° |
| 2026-04-30 21:43 | 53.15631 | -2.24738 | 24448 ft | 467 kts | 292° |
| 2026-04-30 21:44 | 53.17096 | -2.29611 | 25040 ft | 471 kts | 293° |
| 2026-04-30 21:44 | 53.18588 | -2.34487 | 25623 ft | 474 kts | 293° |
| 2026-04-30 21:44 | 53.20072 | -2.39357 | 26193 ft | 477 kts | 293° |
| 2026-04-30 21:44 | 53.21567 | -2.44320 | 26734 ft | 481 kts | 292° |
| 2026-04-30 21:45 | 53.23058 | -2.49324 | 27284 ft | 484 kts | 292° |
| 2026-04-30 21:45 | 53.24553 | -2.54380 | 27847 ft | 487 kts | 292° |
| 2026-04-30 21:45 | 53.26050 | -2.59464 | 28483 ft | 488 kts | 292° |
| 2026-04-30 21:45 | 53.27547 | -2.64550 | 29153 ft | 488 kts | 293° |
| 2026-04-30 21:46 | 53.29039 | -2.69632 | 29656 ft | 491 kts | 293° |
| 2026-04-30 21:46 | 53.30487 | -2.74726 | 30080 ft | 494 kts | 290° |
| 2026-04-30 21:46 | 53.31741 | -2.80032 | 30494 ft | 495 kts | 287° |
| 2026-04-30 21:46 | 53.32936 | -2.85401 | 31008 ft | 493 kts | 287° |
| 2026-04-30 21:47 | 53.34121 | -2.90765 | 31627 ft | 490 kts | 287° |
| 2026-04-30 21:47 | 53.35307 | -2.96090 | 32237 ft | 487 kts | 288° |
| 2026-04-30 21:47 | 53.36454 | -3.01186 | 32784 ft | 485 kts | 288° |
| 2026-04-30 21:47 | 53.37643 | -3.06458 | 33287 ft | 483 kts | 288° |
| 2026-04-30 21:48 | 53.38959 | -3.11644 | 33810 ft | 484 kts | 293° |
| 2026-04-30 21:48 | 53.40553 | -3.16626 | 34251 ft | 486 kts | 298° |
| 2026-04-30 21:48 | 53.42438 | -3.21327 | 34639 ft | 487 kts | 303° |
| 2026-04-30 21:48 | 53.44423 | -3.25920 | 35006 ft | 486 kts | 303° |
| 2026-04-30 21:49 | 53.46418 | -3.30497 | 35370 ft | 486 kts | 303° |
| 2026-04-30 21:49 | 53.48403 | -3.35088 | 35731 ft | 485 kts | 303° |
| 2026-04-30 21:49 | 53.50369 | -3.39687 | 36078 ft | 485 kts | 303° |
| 2026-04-30 21:49 | 53.52336 | -3.44334 | 36141 ft | 490 kts | 303° |
| 2026-04-30 21:50 | 53.56269 | -3.53680 | 36156 ft | 487 kts | 303° |
| 2026-04-30 21:50 | 53.59956 | -3.63119 | 36184 ft | 478 kts | 292° |
| 2026-04-30 21:51 | 53.61956 | -3.73564 | 36168 ft | 472 kts | 276° |
| 2026-04-30 21:51 | 53.62417 | -3.84398 | 36157 ft | 471 kts | 270° |
| 2026-04-30 21:52 | 53.62827 | -3.95430 | 36148 ft | 473 kts | 271° |
| 2026-04-30 21:52 | 53.63270 | -4.06271 | 36144 ft | 474 kts | 270° |
| 2026-04-30 21:53 | 53.63693 | -4.17367 | 36156 ft | 474 kts | 270° |
| 2026-04-30 21:53 | 53.64105 | -4.28473 | 36133 ft | 475 kts | 270° |
| 2026-04-30 21:54 | 53.64504 | -4.39548 | 36136 ft | 474 kts | 270° |
| 2026-04-30 21:54 | 53.64886 | -4.50516 | 36131 ft | 473 kts | 270° |
| 2026-04-30 21:55 | 53.65263 | -4.61580 | 36130 ft | 473 kts | 270° |